createdAt,value
2022-09-16T00:01:00.281Z,100208.13
2022-09-16T00:03:28.190Z,100200.94
2022-09-16T00:05:58.566Z,100185.75
2022-09-16T00:08:25.995Z,100197.88
2022-09-16T00:10:53.336Z,100191.00
2022-09-16T00:13:20.629Z,100183.72
2022-09-16T00:15:51.248Z,100199.19
2022-09-16T00:18:20.630Z,100197.34
2022-09-16T00:20:50.900Z,100189.72
2022-09-16T00:23:19.833Z,100195.72
2022-09-16T00:25:55.265Z,100192.16
2022-09-16T00:28:23.891Z,100193.53
2022-09-16T00:30:51.819Z,100194.59
2022-09-16T00:33:20.682Z,100188.97
2022-09-16T00:35:48.467Z,100173.88
2022-09-16T00:38:16.503Z,100175.00
2022-09-16T00:40:49.242Z,100174.16
2022-09-16T00:43:19.459Z,100175.66
2022-09-16T00:45:55.825Z,100161.03
2022-09-16T00:48:26.618Z,100166.81
2022-09-16T00:51:06.053Z,100167.50
2022-09-16T00:53:43.103Z,100164.84
2022-09-16T00:56:14.433Z,100161.03
2022-09-16T00:59:12.483Z,100162.19
2022-09-16T01:01:43.419Z,100152.78
2022-09-16T01:04:19.077Z,100153.22
2022-09-16T01:06:46.652Z,100148.59
2022-09-16T01:09:14.138Z,100155.66
2022-09-16T01:11:41.497Z,100153.41
2022-09-16T01:14:27.740Z,100153.53
2022-09-16T01:17:06.968Z,100130.28
2022-09-16T01:20:00.352Z,100144.91
2022-09-16T01:23:02.749Z,100157.88
2022-09-16T01:25:48.242Z,100160.22
2022-09-16T01:28:53.115Z,100150.63
2022-09-16T01:31:55.764Z,100135.72
2022-09-16T01:34:36.253Z,100142.00
2022-09-16T01:37:07.233Z,100145.16
2022-09-16T01:39:48.723Z,100145.22
2022-09-16T01:42:24.358Z,100146.06
2022-09-16T01:45:18.097Z,100145.66
2022-09-16T01:48:04.250Z,100133.28
2022-09-16T01:50:40.159Z,100150.13
2022-09-16T01:53:25.692Z,100142.59
2022-09-16T01:56:15.614Z,100130.59
2022-09-16T01:59:03.304Z,100134.75
2022-09-16T02:01:47.981Z,100136.66
2022-09-16T02:04:30.359Z,100094.66
2022-09-16T02:07:01.370Z,100120.91
2022-09-16T02:09:39.532Z,100125.50
2022-09-16T02:12:16.828Z,100118.28
2022-09-16T02:14:47.715Z,100118.53
2022-09-16T02:17:23.559Z,100112.78
2022-09-16T02:19:58.627Z,100105.03
2022-09-16T02:22:32.586Z,100102.66
2022-09-16T02:25:02.783Z,100106.78
2022-09-16T02:27:32.144Z,100073.97
2022-09-16T02:30:06.667Z,100088.03
2022-09-16T02:32:37.798Z,100080.63
2022-09-16T02:35:07.794Z,100073.22
2022-09-16T02:37:46.400Z,100080.38
2022-09-16T02:40:23.042Z,100077.38
2022-09-16T02:42:50.643Z,100070.16
2022-09-16T02:45:18.135Z,100061.91
2022-09-16T02:47:48.186Z,100056.53
2022-09-16T02:50:31.114Z,100059.94
2022-09-16T02:53:07.589Z,100045.09
2022-09-16T02:55:46.139Z,100050.78
2022-09-16T02:58:13.576Z,100047.50
2022-09-16T03:00:47.616Z,100036.19
2022-09-16T03:03:15.466Z,100046.13
2022-09-16T03:06:07.268Z,100045.59
2022-09-16T03:08:36.549Z,100043.44
2022-09-16T03:11:16.679Z,100031.94
2022-09-16T03:13:55.358Z,100037.94
2022-09-16T03:16:46.073Z,100027.06
2022-09-16T03:19:16.649Z,100026.38
2022-09-16T03:22:34.046Z,100028.44
2022-09-16T03:25:11.185Z,100017.75
2022-09-16T03:28:00.038Z,100020.03
2022-09-16T03:30:30.805Z,99995.09
2022-09-16T03:33:06.441Z,100023.91
2022-09-16T03:35:33.704Z,100015.16
2022-09-16T03:38:02.665Z,100017.25
2022-09-16T03:40:33.084Z,99991.44
2022-09-16T03:43:00.520Z,100016.91
2022-09-16T03:45:27.798Z,100011.19
2022-09-16T03:47:55.108Z,100006.03
2022-09-16T03:50:22.735Z,100009.16
2022-09-16T03:52:50.145Z,100005.56
2022-09-16T03:55:17.587Z,99996.63
2022-09-16T03:57:44.974Z,99986.41
2022-09-16T04:00:16.312Z,99981.47
2022-09-16T04:02:44.154Z,99981.69
2022-09-16T04:05:11.812Z,99978.34
2022-09-16T04:07:39.344Z,99974.53
2022-09-16T04:10:07.509Z,99973.63
2022-09-16T04:12:34.909Z,99953.72
2022-09-16T04:15:16.436Z,99955.84
2022-09-16T04:17:43.962Z,99947.16
2022-09-16T04:20:11.287Z,99934.66
2022-09-16T04:22:38.600Z,99937.03
2022-09-16T04:25:06.395Z,99946.84
2022-09-16T04:27:33.779Z,99947.06
2022-09-16T04:30:01.180Z,99920.94
2022-09-16T04:32:34.437Z,99922.84
2022-09-16T04:35:01.741Z,99932.66
2022-09-16T04:37:31.625Z,99929.50
2022-09-16T04:40:07.319Z,99928.44
2022-09-16T04:42:34.801Z,99887.81
2022-09-16T04:45:02.219Z,99925.47
2022-09-16T04:47:29.836Z,99921.00
2022-09-16T04:49:57.324Z,99931.31
2022-09-16T04:52:24.623Z,99934.28
2022-09-16T04:54:51.911Z,99934.69
2022-09-16T04:57:19.202Z,99930.53
2022-09-16T04:59:46.611Z,99921.22
2022-09-16T05:02:50.120Z,99922.28
2022-09-16T05:05:17.657Z,99923.81
2022-09-16T05:07:44.986Z,99928.06
2022-09-16T05:10:12.608Z,99925.50
2022-09-16T05:12:39.942Z,99898.91
2022-09-16T05:15:08.023Z,99932.50
2022-09-16T05:17:50.921Z,99911.97
2022-09-16T05:20:19.039Z,99930.88
2022-09-16T05:22:48.737Z,99905.63
2022-09-16T05:25:16.168Z,99922.22
2022-09-16T05:27:43.562Z,99911.00
2022-09-16T05:30:11.584Z,99908.25
2022-09-16T05:32:39.099Z,99914.41
2022-09-16T05:35:18.338Z,99921.69
2022-09-16T05:37:45.697Z,99922.34
2022-09-16T05:40:13.066Z,99915.16
2022-09-16T05:42:43.426Z,99925.78
2022-09-16T05:45:10.990Z,99932.56
2022-09-16T05:47:38.499Z,99925.97
2022-09-16T05:50:06.383Z,99917.28
2022-09-16T05:52:33.732Z,99925.75
2022-09-16T05:55:01.042Z,99930.44
2022-09-16T05:57:29.205Z,99937.22
2022-09-16T06:00:06.755Z,99924.91
2022-09-16T06:02:37.354Z,99925.69
2022-09-16T06:05:05.005Z,99902.34
2022-09-16T06:07:32.378Z,99918.06
2022-09-16T06:09:59.958Z,99916.78
2022-09-16T06:12:27.383Z,99924.00
2022-09-16T06:14:54.710Z,99928.84
2022-09-16T06:17:22.141Z,99930.31
2022-09-16T06:19:49.483Z,99941.34
2022-09-16T06:22:17.382Z,99951.75
2022-09-16T06:24:49.504Z,99960.44
2022-09-16T06:27:21.222Z,99962.94
2022-09-16T06:29:48.838Z,99955.38
2022-09-16T06:32:16.208Z,99967.88
2022-09-16T06:34:43.527Z,99972.06
2022-09-16T06:37:13.569Z,99988.84
2022-09-16T06:39:40.848Z,99994.09
2022-09-16T06:42:09.348Z,99996.09
2022-09-16T06:44:41.638Z,99996.81
2022-09-16T06:47:09.000Z,99998.22
2022-09-16T06:49:36.483Z,99999.38
2022-09-16T06:52:03.928Z,99993.63
2022-09-16T06:54:32.128Z,100014.13
2022-09-16T06:56:59.537Z,100011.38
2022-09-16T06:59:26.782Z,99994.31
2022-09-16T07:01:54.856Z,100005.81
2022-09-16T07:04:25.039Z,100006.53
2022-09-16T07:09:40.349Z,99997.56
2022-09-16T07:12:08.573Z,100006.16
2022-09-16T07:14:36.173Z,100012.44
2022-09-16T07:17:03.784Z,100004.63
2022-09-16T07:19:31.159Z,100008.56
2022-09-16T07:21:58.594Z,99986.41
2022-09-16T07:24:26.069Z,100013.44
2022-09-16T07:26:53.379Z,100033.50
2022-09-16T07:29:21.188Z,100040.47
2022-09-16T07:31:48.475Z,100050.03
2022-09-16T07:34:15.939Z,100059.44
2022-09-16T07:36:49.078Z,100068.44
2022-09-16T07:39:18.252Z,100060.31
2022-09-16T07:41:48.765Z,100069.16
2022-09-16T07:44:19.753Z,100068.44
2022-09-16T07:46:48.579Z,100069.75
2022-09-16T07:49:17.377Z,100078.94
2022-09-16T07:51:45.091Z,100070.78
2022-09-16T07:54:15.776Z,100075.81
2022-09-16T07:56:44.384Z,100087.31
2022-09-16T07:59:18.463Z,100093.44
2022-09-16T08:01:46.938Z,100100.22
2022-09-16T08:04:14.414Z,100104.13
2022-09-16T08:06:42.053Z,100107.50
2022-09-16T08:09:36.780Z,100109.50
2022-09-16T08:11:57.123Z,100091.91
2022-09-16T08:14:25.613Z,100127.31
2022-09-16T08:16:53.018Z,100140.94
2022-09-16T08:19:22.630Z,100148.03
2022-09-16T08:21:50.353Z,100142.72
2022-09-16T08:24:17.658Z,100138.63
2022-09-16T08:26:45.085Z,100139.75
2022-09-16T08:29:12.699Z,100129.13
2022-09-16T08:31:40.408Z,100117.19
2022-09-16T08:34:10.120Z,100114.09
2022-09-16T08:36:38.896Z,100126.72
2022-09-16T08:39:09.889Z,100135.22
2022-09-16T08:42:02.048Z,100133.53
2022-09-16T08:45:00.586Z,100130.22
2022-09-16T08:47:57.930Z,100148.94
2022-09-16T08:50:37.946Z,100150.72
2022-09-16T08:53:13.107Z,100145.47
2022-09-16T08:55:48.699Z,100112.72
2022-09-16T08:58:46.966Z,100100.94
2022-09-16T09:01:41.936Z,100138.25
2022-09-16T09:04:09.591Z,100130.00
2022-09-16T09:06:59.086Z,100126.22
2022-09-16T09:09:41.681Z,100120.44
2022-09-16T09:12:22.072Z,100128.75
2022-09-16T09:15:32.821Z,100148.00
2022-09-16T09:18:30.814Z,100141.09
2022-09-16T09:20:58.080Z,100140.13
2022-09-16T09:23:43.445Z,100128.00
2022-09-16T09:26:25.922Z,100159.19
2022-09-16T09:29:17.899Z,100145.31
2022-09-16T09:31:51.218Z,100173.16
2022-09-16T09:34:52.459Z,100191.56
2022-09-16T09:37:58.055Z,100205.84
2022-09-16T09:40:46.602Z,100198.22
2022-09-16T09:43:53.705Z,100192.59
2022-09-16T09:46:29.260Z,100184.84
2022-09-16T09:49:39.408Z,100197.06
2022-09-16T09:52:42.761Z,100205.88
2022-09-16T09:55:20.400Z,100200.81
2022-09-16T09:58:06.035Z,100199.38
2022-09-16T10:00:33.440Z,100211.34
2022-09-16T10:03:14.876Z,100222.84
2022-09-16T10:05:42.374Z,100202.38
2022-09-16T10:08:15.822Z,100192.56
2022-09-16T10:10:50.856Z,100183.19
2022-09-16T10:13:19.689Z,100184.50
2022-09-16T10:15:51.970Z,100181.94
2022-09-16T10:18:26.546Z,100171.34
2022-09-16T10:21:13.145Z,100178.56
2022-09-16T10:23:41.017Z,100172.16
2022-09-16T10:26:20.395Z,100162.31
2022-09-16T10:29:00.300Z,100138.13
2022-09-16T10:31:37.290Z,100145.69
2022-09-16T10:34:14.380Z,100140.88
2022-09-16T10:36:41.746Z,100118.13
2022-09-16T10:39:23.395Z,100118.72
2022-09-16T10:41:50.845Z,100123.22
2022-09-16T10:44:22.195Z,100123.53
2022-09-16T10:46:53.898Z,100124.34
2022-09-16T10:49:31.071Z,100131.84
2022-09-16T10:52:09.435Z,100125.66
2022-09-16T10:54:38.211Z,100122.31
2022-09-16T10:57:20.261Z,100118.22
2022-09-16T11:00:05.404Z,100114.97
2022-09-16T11:03:03.765Z,100093.06
2022-09-16T11:05:45.519Z,100086.59
2022-09-16T11:08:18.820Z,100065.63
2022-09-16T11:11:11.831Z,100024.94
2022-09-16T11:13:42.230Z,100027.28
2022-09-16T11:16:34.890Z,100015.56
2022-09-16T11:19:25.381Z,100021.16
2022-09-16T11:22:17.207Z,100013.38
2022-09-16T11:25:03.394Z,100004.91
2022-09-16T11:27:37.036Z,99980.88
2022-09-16T11:30:14.641Z,99998.38
2022-09-16T11:33:03.642Z,100007.69
2022-09-16T11:36:01.460Z,100006.72
2022-09-16T11:38:55.973Z,100002.22
2022-09-16T11:41:59.894Z,99999.81
2022-09-16T11:44:48.939Z,99971.19
2022-09-16T11:47:40.486Z,99993.78
2022-09-16T11:50:18.849Z,100018.09
2022-09-16T11:53:05.999Z,100012.19
2022-09-16T11:56:06.250Z,100008.28
2022-09-16T11:58:49.264Z,99998.03
2022-09-16T12:01:35.594Z,99983.16
2022-09-16T12:04:19.880Z,99951.31
2022-09-16T12:07:07.164Z,99926.84
2022-09-16T12:09:40.905Z,99961.19
2022-09-16T12:12:16.763Z,99926.06
2022-09-16T12:14:53.846Z,99948.19
2022-09-16T12:17:25.244Z,99943.72
2022-09-16T12:19:59.830Z,99973.53
2022-09-16T12:22:34.223Z,99951.47
2022-09-16T12:25:09.765Z,99941.56
2022-09-16T12:27:45.388Z,99951.09
2022-09-16T12:30:20.176Z,99947.81
2022-09-16T12:33:22.557Z,99925.94
2022-09-16T12:36:13.029Z,99912.53
2022-09-16T12:38:41.025Z,99913.41
2022-09-16T12:41:13.552Z,99917.41
2022-09-16T12:43:50.123Z,99918.03
2022-09-16T12:46:49.747Z,99908.84
2022-09-16T12:49:54.946Z,99896.63
2022-09-16T12:52:40.028Z,99925.50
2022-09-16T12:55:31.812Z,99913.31
2022-09-16T12:58:13.696Z,99913.06
2022-09-16T13:00:56.535Z,99915.56
2022-09-16T13:03:28.114Z,99907.28
2022-09-16T13:05:59.073Z,99914.59
2022-09-16T13:08:32.968Z,99901.47
2022-09-16T13:12:16.152Z,99901.84
2022-09-16T13:13:56.747Z,99884.38
2022-09-16T13:16:37.282Z,99899.84
2022-09-16T13:19:34.472Z,99914.91
2022-09-16T13:22:17.148Z,99904.25
2022-09-16T13:24:53.600Z,99890.34
2022-09-16T13:27:26.107Z,99897.19
2022-09-16T13:30:19.283Z,99865.81
2022-09-16T13:33:16.723Z,99896.56
2022-09-16T13:36:11.459Z,99896.53
2022-09-16T13:38:47.924Z,99874.53
2022-09-16T13:41:28.364Z,99861.34
2022-09-16T13:43:55.895Z,99851.84
2022-09-16T13:46:29.824Z,99860.50
2022-09-16T13:49:12.224Z,99860.25
2022-09-16T13:51:49.242Z,99857.59
2022-09-16T13:54:28.724Z,99850.69
2022-09-16T13:57:17.232Z,99846.41
2022-09-16T13:59:47.565Z,99876.88
2022-09-16T14:02:31.242Z,99878.78
2022-09-16T14:05:43.259Z,99886.09
2022-09-16T14:08:12.210Z,99878.88
2022-09-16T14:11:04.514Z,99884.16
2022-09-16T14:14:06.134Z,99881.84
2022-09-16T14:16:43.028Z,99885.59
2022-09-16T14:19:28.400Z,99880.03
2022-09-16T14:22:06.660Z,99881.47
2022-09-16T14:24:36.994Z,99886.91
2022-09-16T14:27:06.127Z,99871.63
2022-09-16T14:29:38.829Z,99866.44
2022-09-16T14:32:14.498Z,99860.97
2022-09-16T14:34:41.945Z,99843.75
2022-09-16T14:37:17.031Z,99845.97
2022-09-16T14:39:50.891Z,99841.78
2022-09-16T14:42:27.196Z,99792.81
2022-09-16T14:44:56.890Z,99822.69
2022-09-16T14:50:52.685Z,99807.34
2022-09-16T14:53:36.392Z,99820.66
2022-09-16T14:56:09.051Z,99825.72
2022-09-16T14:58:39.011Z,99820.69
2022-09-16T15:01:12.363Z,99826.25
2022-09-16T15:04:04.411Z,99808.25
2022-09-16T15:06:37.536Z,99786.25
2022-09-16T15:09:19.943Z,99798.53
2022-09-16T15:11:53.062Z,99792.81
2022-09-16T15:14:23.777Z,99790.41
2022-09-16T15:16:55.837Z,99789.66
2022-09-16T15:19:45.106Z,99776.53
2022-09-16T15:22:15.571Z,99780.50
2022-09-16T15:24:44.265Z,99764.88
2022-09-16T15:27:11.654Z,99788.31
2022-09-16T15:32:44.450Z,99766.88
2022-09-16T15:35:26.196Z,99780.44
2022-09-16T15:37:54.838Z,99776.81
2022-09-16T15:40:26.645Z,99777.19
2022-09-16T15:43:22.107Z,99793.38
2022-09-16T15:46:16.465Z,99786.34
2022-09-16T15:48:56.232Z,99781.34
2022-09-16T15:51:36.661Z,99785.03
2022-09-16T15:54:22.990Z,99790.56
2022-09-16T15:57:22.717Z,99787.53
2022-09-16T15:59:55.266Z,99775.31
2022-09-16T16:02:35.303Z,99772.00
2022-09-16T16:05:13.312Z,99762.81
2022-09-16T16:07:54.198Z,99764.72
2022-09-16T16:10:27.042Z,99725.72
2022-09-16T16:13:00.552Z,99753.50
2022-09-16T16:15:41.073Z,99745.03
2022-09-16T16:18:12.178Z,99748.56
2022-09-16T16:22:21.780Z,99731.03
2022-09-16T16:23:38.162Z,99744.91
2022-09-16T16:26:10.609Z,99738.91
2022-09-16T16:28:40.520Z,99729.59
2022-09-16T16:31:13.915Z,99735.88
2022-09-16T16:33:55.301Z,99692.63
2022-09-16T16:36:23.023Z,99747.19
2022-09-16T16:38:51.675Z,99757.19
2022-09-16T16:41:24.055Z,99763.13
2022-09-16T16:43:52.029Z,99784.09
2022-09-16T16:46:19.545Z,99769.84
2022-09-16T16:48:47.754Z,99777.44
2022-09-16T16:51:15.094Z,99744.66
2022-09-16T16:53:42.465Z,99787.31
2022-09-16T16:56:15.210Z,99796.47
2022-09-16T16:58:46.078Z,99796.25
2022-09-16T17:01:16.573Z,99820.69
2022-09-16T17:03:46.546Z,99865.66
2022-09-16T17:06:14.352Z,99865.59
2022-09-16T17:08:41.993Z,99829.72
2022-09-16T17:11:14.975Z,99819.69
2022-09-16T17:13:45.633Z,99812.50
2022-09-16T17:16:16.223Z,99791.50
2022-09-16T17:18:44.152Z,99729.34
2022-09-16T17:21:17.464Z,99800.88
2022-09-16T17:23:45.574Z,99789.69
2022-09-16T17:26:14.174Z,99803.28
2022-09-16T17:28:44.103Z,99798.03
2022-09-16T17:31:15.287Z,99764.50
2022-09-16T17:33:43.953Z,99775.75
2022-09-16T17:36:13.836Z,99763.16
2022-09-16T17:38:41.624Z,99762.31
2022-09-16T17:41:14.332Z,99760.63
2022-09-16T17:43:42.977Z,99758.56
2022-09-16T17:46:16.219Z,99750.91
2022-09-16T17:48:44.151Z,99754.75
2022-09-16T17:51:14.749Z,99752.84
2022-09-16T17:53:42.055Z,99745.63
2022-09-16T17:56:13.587Z,99733.94
2022-09-16T17:58:44.767Z,99727.50
2022-09-16T18:01:16.799Z,99722.38
2022-09-16T18:03:46.512Z,99724.97
2022-09-16T18:06:17.403Z,99675.00
2022-09-16T18:08:45.680Z,99714.63
2022-09-16T18:11:15.152Z,99710.63
2022-09-16T18:13:43.066Z,99708.09
2022-09-16T18:16:17.077Z,99721.94
2022-09-16T18:18:45.811Z,99725.56
2022-09-16T18:21:15.534Z,99723.28
2022-09-16T18:23:48.901Z,99739.31
2022-09-16T18:26:17.431Z,99704.69
2022-09-16T18:29:08.516Z,99723.34
2022-09-16T18:31:35.178Z,99726.09
2022-09-16T18:34:02.493Z,99719.16
2022-09-16T18:36:30.515Z,99716.13
2022-09-16T18:38:59.519Z,99731.88
2022-09-16T18:41:30.258Z,99708.28
2022-09-16T18:44:05.377Z,99730.97
2022-09-16T18:46:38.048Z,99723.06
2022-09-16T18:49:06.507Z,99706.81
2022-09-16T18:51:36.641Z,99705.78
2022-09-16T18:54:16.407Z,99712.34
2022-09-16T18:56:43.938Z,99712.25
2022-09-16T18:59:22.642Z,99709.94
2022-09-16T19:01:56.846Z,99708.88
2022-09-16T19:04:30.439Z,99705.84
2022-09-16T19:07:06.258Z,99692.97
2022-09-16T19:09:36.520Z,99702.78
2022-09-16T19:12:05.572Z,99694.72
2022-09-16T19:14:33.010Z,99681.59
2022-09-16T19:17:07.799Z,99692.00
2022-09-16T19:19:35.554Z,99676.13
2022-09-16T19:22:06.181Z,99685.66
2022-09-16T19:24:34.411Z,99684.81
2022-09-16T19:27:01.882Z,99665.84
2022-09-16T19:29:29.230Z,99679.81
2022-09-16T19:31:57.711Z,99684.88
2022-09-16T19:34:25.051Z,99685.78
2022-09-16T19:36:52.775Z,99683.03
2022-09-16T19:39:21.441Z,99681.56
2022-09-16T19:41:48.983Z,99689.84
2022-09-16T19:44:17.908Z,99693.38
2022-09-16T19:46:49.615Z,99689.13
2022-09-16T19:49:21.086Z,99682.31
2022-09-16T19:51:49.588Z,99670.44
2022-09-16T19:54:17.273Z,99657.72
2022-09-16T19:56:49.486Z,99658.56
2022-09-16T19:59:18.179Z,99676.88
2022-09-16T20:01:45.531Z,99696.38
2022-09-16T20:04:13.050Z,99695.97
2022-09-16T20:06:42.271Z,99673.50
2022-09-16T20:09:12.535Z,99690.44
2022-09-16T20:11:43.909Z,99682.78
2022-09-16T20:14:19.190Z,99683.66
2022-09-16T20:16:47.003Z,99685.38
2022-09-16T20:19:16.429Z,99690.00
2022-09-16T20:21:44.733Z,99685.78
2022-09-16T20:24:22.029Z,99683.09
2022-09-16T20:26:51.653Z,99707.94
2022-09-16T20:29:20.363Z,99708.63
2022-09-16T20:31:49.435Z,99719.88
2022-09-16T20:34:17.256Z,99718.22
2022-09-16T20:36:46.146Z,99721.81
2022-09-16T20:39:14.801Z,99719.09
2022-09-16T20:41:45.841Z,99698.94
2022-09-16T20:44:14.977Z,99732.66
2022-09-16T20:46:42.433Z,99739.03
2022-09-16T20:49:16.084Z,99734.78
2022-09-16T20:51:43.918Z,99734.97
2022-09-16T20:54:14.060Z,99730.56
2022-09-16T20:56:43.724Z,99738.16
2022-09-16T20:59:15.229Z,99724.19
2022-09-16T21:01:42.832Z,99702.97
2022-09-16T21:04:15.767Z,99712.28
2022-09-16T21:06:43.432Z,99723.75
2022-09-16T21:09:13.544Z,99707.44
2022-09-16T21:11:44.926Z,99724.63
2022-09-16T21:14:15.509Z,99721.84
2022-09-16T21:16:44.023Z,99727.16
2022-09-16T21:19:13.771Z,99727.78
2022-09-16T21:21:44.591Z,99723.53
2022-09-16T21:24:13.386Z,99724.84
2022-09-16T21:26:41.679Z,99711.44
2022-09-16T21:29:11.826Z,99712.00
2022-09-16T21:31:41.452Z,99699.53
2022-09-16T21:34:17.106Z,99692.97
2022-09-16T21:36:45.274Z,99691.06
2022-09-16T21:39:17.601Z,99696.19
2022-09-16T21:41:46.330Z,99674.53
2022-09-16T21:44:21.268Z,99696.75
2022-09-16T21:46:51.109Z,99681.28
2022-09-16T21:49:30.520Z,99688.88
2022-09-16T21:51:59.008Z,99670.78
2022-09-16T21:54:28.286Z,99670.22
2022-09-16T21:56:55.736Z,99686.78
2022-09-16T21:59:23.213Z,99687.19
2022-09-16T22:01:51.879Z,99667.00
2022-09-16T22:04:22.056Z,99678.59
2022-09-16T22:06:51.092Z,99674.00
2022-09-16T22:09:18.868Z,99658.16
2022-09-16T22:11:46.418Z,99648.03
2022-09-16T22:14:14.216Z,99655.44
2022-09-16T22:16:41.744Z,99653.31
2022-09-16T22:19:14.872Z,99655.00
2022-09-16T22:21:45.348Z,99645.69
2022-09-16T22:24:13.928Z,99646.34
2022-09-16T22:26:41.722Z,99653.53
2022-09-16T22:29:10.816Z,99655.66
2022-09-16T22:31:41.587Z,99653.53
2022-09-16T22:34:09.663Z,99642.66
2022-09-16T22:36:37.980Z,99657.50
2022-09-16T22:39:11.531Z,99631.06
2022-09-16T22:41:39.204Z,99649.03
2022-09-16T22:44:07.074Z,99644.41
2022-09-16T22:46:39.349Z,99646.78
2022-09-16T22:49:06.737Z,99633.81
2022-09-16T22:51:34.182Z,99645.47
2022-09-16T22:54:05.304Z,99640.38
2022-09-16T22:56:33.814Z,99634.44
2022-09-16T22:59:03.246Z,99632.09
2022-09-16T23:01:37.700Z,99632.09
2022-09-16T23:04:06.768Z,99635.13
2022-09-16T23:06:34.974Z,99626.78
2022-09-16T23:09:02.907Z,99624.50
2022-09-16T23:11:33.397Z,99620.00
2022-09-16T23:14:01.576Z,99628.28
2022-09-16T23:16:32.019Z,99629.59
2022-09-16T23:19:03.572Z,99626.66
2022-09-16T23:21:35.824Z,99611.59
2022-09-16T23:24:07.118Z,99623.84
2022-09-16T23:26:37.500Z,99632.16
2022-09-16T23:29:08.506Z,99627.09
2022-09-16T23:31:40.545Z,99632.78
2022-09-16T23:34:19.956Z,99623.44
2022-09-16T23:36:48.402Z,99610.13
2022-09-16T23:39:17.073Z,99618.13
2022-09-16T23:41:45.358Z,99602.84
2022-09-16T23:44:14.590Z,99605.84
2022-09-16T23:46:42.214Z,99627.50
2022-09-16T23:49:10.447Z,99618.38
2022-09-16T23:51:37.811Z,99603.97
2022-09-16T23:54:05.521Z,99598.69
2022-09-16T23:56:33.029Z,99612.25
2022-09-16T23:59:01.076Z,99626.66
